Jack Holland — WDF3615 — position and weather

sailwx.info

Track history (hours):
 
Tides and Currents Weather Stations Pressure Air Temp Water Temp Dewpoint Dewpoint Depression Visibility Wind Speed Wind Dir Waves Ship Positions

Jack Holland

Owner: Norfolk Tug Company, Norfolk, VA. More information available from US FCC via Universal Licensing System and Coast Guard Vessel Documentation Center.

Last reported at 2018-Apr-19 20:18 UTC. Time now 2018-Apr-20 14:26 UTC.
Position N 36°55' W 076°20'.

Length 22 m; draft 2.5 m.

Type: Tug. MMSI: 367442020.

Date/timePositionNaut miles runAvg speedWind from/ knotsBaromVisibWave heightAir tempDewpointWater temp
2018-Apr-19 20:18N 36°55' W 076°20'3 7.6
2018-Apr-19 19:57N 36°53' W 076°20'3 7.0
2018-Apr-19 19:30N 36°50' W 076°17'1 1.4
2018-Apr-19 18:59N 36°50' W 076°16'0 0.1
2018-Apr-19 18:28N 36°50' W 076°16'0 0.2
2018-Apr-19 18:00N 36°50' W 076°16'0 0.0
2018-Apr-19 17:30N 36°50' W 076°16'0 0.0
2018-Apr-19 17:00N 36°50' W 076°16'0 0.0
2018-Apr-19 16:30N 36°50' W 076°16'0 0.0
2018-Apr-19 16:00N 36°50' W 076°16'0 0.0
2018-Apr-19 15:30N 36°50' W 076°16'0 0.0
2018-Apr-19 15:00N 36°50' W 076°16'0 0.0
2018-Apr-19 14:30N 36°50' W 076°16'0 0.0
2018-Apr-19 14:00N 36°50' W 076°16'0 0.0
2018-Apr-19 13:30N 36°50' W 076°16'0 0.0
2018-Apr-19 12:57N 36°50' W 076°16'0 0.0
2018-Apr-19 12:31N 36°50' W 076°16'0 0.0
2018-Apr-19 12:00N 36°50' W 076°16'0 0.0
2018-Apr-19 11:30N 36°50' W 076°16'0 0.0
2018-Apr-19 11:01N 36°50' W 076°16'0 0.0
2018-Apr-19 10:30N 36°50' W 076°16'0 0.0
2018-Apr-19 10:00N 36°50' W 076°16'0 0.0
2018-Apr-19 09:30N 36°50' W 076°16'0 0.0
2018-Apr-19 09:00N 36°50' W 076°16'0 0.0
2018-Apr-19 08:31N 36°50' W 076°16'0 0.0
2018-Apr-19 08:00N 36°50' W 076°16'0 0.0
2018-Apr-19 07:30N 36°50' W 076°16'0 0.0
2018-Apr-19 07:00N 36°50' W 076°16'0 0.0
2018-Apr-19 06:27N 36°50' W 076°16'0 0.0
2018-Apr-19 06:00N 36°50' W 076°16'0 0.0
2018-Apr-19 05:30N 36°50' W 076°16'0 0.0
2018-Apr-19 05:00N 36°50' W 076°16'0 0.0
2018-Apr-19 04:30N 36°50' W 076°16'0 0.0
2018-Apr-19 04:00N 36°50' W 076°16'0 0.0
2018-Apr-19 03:30N 36°50' W 076°16'0 0.0
2018-Apr-19 02:57N 36°50' W 076°16'0 0.0
2018-Apr-19 02:30N 36°50' W 076°16'0 0.0
2018-Apr-19 01:57N 36°50' W 076°16'0 0.0
2018-Apr-19 01:30N 36°50' W 076°16'0 0.0
2018-Apr-19 01:00N 36°50' W 076°16'0 0.0
2018-Apr-19 00:27N 36°50' W 076°16'0 0.0
2018-Apr-19 00:00N 36°50' W 076°16'0 0.0
2018-Apr-18 23:30N 36°50' W 076°16'0 0.1
2018-Apr-18 23:00N 36°50' W 076°16'3 6.0
2018-Apr-18 22:30N 36°52' W 076°19'2 3.0
2018-Apr-18 21:42N 36°54' W 076°20'0 1.0
2018-Apr-18 21:14N 36°55' W 076°20'0 0.0
2018-Apr-18 20:56N 36°55' W 076°20'2 3.6
2018-Apr-18 20:28N 36°53' W 076°20'3 7.4
2018-Apr-18 20:00N 36°51' W 076°17'1 1.6
2018-Apr-18 19:28N 36°50' W 076°16'0 0.0
2018-Apr-18 18:58N 36°50' W 076°16'0 0.0
2018-Apr-18 18:28N 36°50' W 076°16'0 0.0
2018-Apr-18 17:58N 36°50' W 076°16'0 0.0
2018-Apr-18 17:28N 36°50' W 076°16'0 0.0
2018-Apr-18 16:58N 36°50' W 076°16'0 0.0
2018-Apr-18 16:28N 36°50' W 076°16'0 0.3
2018-Apr-18 16:01N 36°50' W 076°16'2 3.7
2018-Apr-18 15:30N 36°49' W 076°17'2 4.5
2018-Apr-18 15:00N 36°46' W 076°18'0 0.4
2018-Apr-18 14:30N 36°46' W 076°18'3 6.7
2018-Apr-18 14:00N 36°50' W 076°18'2 3.0
2018-Apr-18 13:29N 36°51' W 076°18'3 7.4
2018-Apr-18 13:00N 36°54' W 076°20'2 0.1
2018-Apr-17 20:36N 36°56' W 076°20'2 8.5
2018-Apr-17 20:25N 36°54' W 076°20'3 7.8
2018-Apr-17 20:00N 36°51' W 076°18'3 7.0
2018-Apr-17 19:30N 36°48' W 076°18'2 3.3
2018-Apr-17 18:58N 36°46' W 076°18'0 0.0
2018-Apr-17 18:28N 36°46' W 076°18'0 0.0
2018-Apr-17 17:58N 36°46' W 076°18'0 0.0
2018-Apr-17 17:28N 36°46' W 076°18'0 0.0
2018-Apr-17 16:58N 36°46' W 076°18'0 0.0
2018-Apr-17 16:28N 36°46' W 076°18'0 0.0
2018-Apr-17 15:58N 36°46' W 076°18'0 0.0
2018-Apr-17 15:28N 36°46' W 076°18'0 0.0
2018-Apr-17 14:58N 36°46' W 076°18'0 0.0
2018-Apr-17 14:28N 36°46' W 076°18'0 0.0
2018-Apr-17 13:58N 36°46' W 076°18'0 0.0
2018-Apr-17 13:28N 36°46' W 076°18'0 0.0
2018-Apr-17 12:58N 36°46' W 076°18'0 0.0
2018-Apr-17 12:28N 36°46' W 076°18'0 0.0
2018-Apr-17 11:58N 36°46' W 076°18'0 0.1
2018-Apr-17 11:28N 36°46' W 076°18'1 1.3
2018-Apr-17 11:00N 36°47' W 076°18'0 0.1
2018-Apr-17 10:30N 36°47' W 076°18'1 1.6
2018-Apr-17 10:00N 36°47' W 076°18'2 3.6
2018-Apr-17 09:31N 36°49' W 076°17'2 3.9
2018-Apr-17 09:01N 36°51' W 076°18'2 4.2
2018-Apr-17 08:29N 36°53' W 076°20'2 4.3
2018-Apr-17 08:00N 36°55' W 076°20'2 0.0
2018-Apr-15 16:12N 36°56' W 076°20'3 9.1
2018-Apr-15 15:52N 36°53' W 076°20'3 8.3
2018-Apr-15 15:30N 36°51' W 076°18'4 7.8
2018-Apr-15 15:00N 36°47' W 076°18'1 2.0
2018-Apr-15 14:28N 36°46' W 076°18'2 4.5
2018-Apr-15 14:00N 36°48' W 076°18'3 4.9
2018-Apr-15 13:30N 36°50' W 076°16'0 0.3
2018-Apr-15 12:58N 36°50' W 076°16'0 0.0
2018-Apr-15 12:28N 36°50' W 076°16'0 0.0
2018-Apr-15 11:58N 36°50' W 076°16'0 0.0
2018-Apr-15 11:25N 36°50' W 076°16'0 0.0
2018-Apr-15 10:58N 36°50' W 076°16'0 0.0
2018-Apr-15 10:28N 36°50' W 076°16'0 0.0
2018-Apr-15 09:58N 36°50' W 076°16'0 0.0
2018-Apr-15 09:28N 36°50' W 076°16'0 0.0
2018-Apr-15 08:55N 36°50' W 076°16'0 0.0
2018-Apr-15 08:28N 36°50' W 076°16'0 0.0
2018-Apr-15 07:58N 36°50' W 076°16'0 0.0
2018-Apr-15 07:28N 36°50' W 076°16'0 0.0
2018-Apr-15 06:58N 36°50' W 076°16'0 0.0
2018-Apr-15 06:28N 36°50' W 076°16'0 0.0
2018-Apr-15 05:58N 36°50' W 076°16'0 0.0
2018-Apr-15 05:28N 36°50' W 076°16'0 0.0
2018-Apr-15 04:58N 36°50' W 076°16'0 0.0
2018-Apr-15 04:28N 36°50' W 076°16'0 0.0
2018-Apr-15 03:58N 36°50' W 076°16'0 0.0
2018-Apr-15 03:28N 36°50' W 076°16'0 0.0
2018-Apr-15 02:55N 36°50' W 076°16'0 0.0
2018-Apr-15 02:28N 36°50' W 076°16'0 0.0
2018-Apr-15 01:58N 36°50' W 076°16'0 0.0
2018-Apr-15 01:28N 36°50' W 076°16'0 0.0
2018-Apr-15 00:58N 36°50' W 076°16'0 0.0
2018-Apr-15 00:28N 36°50' W 076°16'0 0.0
2018-Apr-14 23:52N 36°50' W 076°16'0 0.0
2018-Apr-14 23:28N 36°50' W 076°16'0 0.0
2018-Apr-14 22:58N 36°50' W 076°16'0 0.0
2018-Apr-14 22:28N 36°50' W 076°16'0 0.0
2018-Apr-14 21:58N 36°50' W 076°16'0 0.0
2018-Apr-14 21:28N 36°50' W 076°16'0 0.0
2018-Apr-14 20:58N 36°50' W 076°16'0 0.0
2018-Apr-14 20:28N 36°50' W 076°16'0 0.0
2018-Apr-14 19:58N 36°50' W 076°16'0 0.0
2018-Apr-14 19:28N 36°50' W 076°16'0 0.0
2018-Apr-14 18:58N 36°50' W 076°16'0 0.0
2018-Apr-14 18:28N 36°50' W 076°16'0 0.0
2018-Apr-14 17:58N 36°50' W 076°16'0 0.0
2018-Apr-14 17:28N 36°50' W 076°16'0 0.0
2018-Apr-14 16:58N 36°50' W 076°16'0 0.0
2018-Apr-14 16:28N 36°50' W 076°16'0 0.0
2018-Apr-14 15:58N 36°50' W 076°16'0 0.0
2018-Apr-14 15:28N 36°50' W 076°16'0 0.0
2018-Apr-14 14:58N 36°50' W 076°16'0 0.0
2018-Apr-14 14:28N 36°50' W 076°16'0 0.0
2018-Apr-14 13:58N 36°50' W 076°16'0 0.0
2018-Apr-14 13:28N 36°50' W 076°16'0 0.0
2018-Apr-14 12:58N 36°50' W 076°16'0 0.0
2018-Apr-14 12:27N 36°50' W 076°16'1 2.7
2018-Apr-14 12:00N 36°50' W 076°18'2 4.1
2018-Apr-14 11:30N 36°48' W 076°18'0 0.0
2018-Apr-14 11:00N 36°48' W 076°18'0 0.0
2018-Apr-14 10:27N 36°48' W 076°18'0 0.0
2018-Apr-14 10:00N 36°48' W 076°18'0 0.6
2018-Apr-14 09:30N 36°48' W 076°18'2 5.0
2018-Apr-14 09:00N 36°50' W 076°16'0 0.0
2018-Apr-14 05:30N 36°50' W 076°16'0 0.0
2018-Apr-14 04:27N 36°50' W 076°16'0 0.0
2018-Apr-14 04:00N 36°50' W 076°16'0 0.0
2018-Apr-14 03:30N 36°50' W 076°16'0 0.0
2018-Apr-14 03:00N 36°50' W 076°16'0 0.0
2018-Apr-14 02:30N 36°50' W 076°16'0 0.0
2018-Apr-14 02:00N 36°50' W 076°16'0 0.0
2018-Apr-14 01:30N 36°50' W 076°16'0 0.0
2018-Apr-14 01:00N 36°50' W 076°16'0 0.0
2018-Apr-14 00:30N 36°50' W 076°16'0 0.0
2018-Apr-14 00:00N 36°50' W 076°16'0 0.0
2018-Apr-13 23:30N 36°50' W 076°16'0 0.0
2018-Apr-13 22:48N 36°50' W 076°16'0 0.0
2018-Apr-13 22:06N 36°50' W 076°16'0 0.0
2018-Apr-13 21:48N 36°50' W 076°16'0 0.0
2018-Apr-13 21:27N 36°50' W 076°16'0 0.0
2018-Apr-13 20:57N 36°50' W 076°16'0 0.0
2018-Apr-13 20:24N 36°50' W 076°16'0 0.0
2018-Apr-13 20:00N 36°50' W 076°16'0 0.0
2018-Apr-13 19:18N 36°50' W 076°16'0 0.3
2018-Apr-13 19:00N 36°50' W 076°16'3 6.6
2018-Apr-13 18:30N 36°52' W 076°20'3 0.2
2018-Apr-13 01:38N 36°55' W 076°20'2 9.1
2018-Apr-13 01:27N 36°53' W 076°20'4 8.2
2018-Apr-13 01:00N 36°51' W 076°18'0 0.4
2018-Apr-13 00:29N 36°50' W 076°17'0 0.3
2018-Apr-13 00:00N 36°50' W 076°18'3 6.6
2018-Apr-12 23:30N 36°52' W 076°21'0 0.2
2018-Apr-12 22:57N 36°53' W 076°21'1 3.1
2018-Apr-12 22:30N 36°52' W 076°19'0 0.2
2018-Apr-12 21:00N 36°52' W 076°20'1 1.7
2018-Apr-12 20:27N 36°51' W 076°18'2 4.4
2018-Apr-12 20:00N 36°50' W 076°16'0 0.3
2018-Apr-12 19:23N 36°50' W 076°16'0 0.0
2018-Apr-12 17:59N 36°50' W 076°16'0 0.0
2018-Apr-12 16:35N 36°50' W 076°16'0 0.0
2018-Apr-12 16:29N 36°50' W 076°16'0 0.0
2018-Apr-12 15:47N 36°50' W 076°16'0 0.5
2018-Apr-12 15:30N 36°50' W 076°16'2 4.2
2018-Apr-12 14:59N 36°48' W 076°17'2 4.5
2018-Apr-12 14:30N 36°46' W 076°18'0 0.5
2018-Apr-12 13:58N 36°46' W 076°18'1 1.5
2018-Apr-12 13:30N 36°47' W 076°18'3 5.0
2018-Apr-12 13:00N 36°49' W 076°17'3 5.6
2018-Apr-12 12:30N 36°52' W 076°19'3 6.0
2018-Apr-12 12:00N 36°54' W 076°20'2 0.1
2018-Apr-10 18:10N 36°57' W 076°20'1 8.1
2018-Apr-10 18:00N 36°55' W 076°20'3 6.0
2018-Apr-10 17:30N 36°52' W 076°20'3 5.7
2018-Apr-10 17:00N 36°51' W 076°17'1 1.3
2018-Apr-10 16:17N 36°50' W 076°16'0 1.5
2018-Apr-10 16:00N 36°50' W 076°17'0 0.4
2018-Apr-10 15:29N 36°50' W 076°17'0 0.2
2018-Apr-10 14:59N 36°50' W 076°17'0 0.0
2018-Apr-10 14:23N 36°50' W 076°17'1 1.4
2018-Apr-10 14:00N 36°50' W 076°16'0 0.0
2018-Apr-10 12:36N 36°50' W 076°16'0 0.0
2018-Apr-10 12:30N 36°50' W 076°16'0 0.0
2018-Apr-10 11:45N 36°50' W 076°16'0 0.0
2018-Apr-10 11:21N 36°50' W 076°16'0 0.0
2018-Apr-10 11:00N 36°50' W 076°16'0 0.0
2018-Apr-10 10:30N 36°50' W 076°16'0 0.0
2018-Apr-10 10:00N 36°50' W 076°16'0 0.0
2018-Apr-10 09:27N 36°50' W 076°16'0 0.0
2018-Apr-10 09:00N 36°50' W 076°16'0 0.0
2018-Apr-10 08:27N 36°50' W 076°16'0 0.0
2018-Apr-10 07:57N 36°50' W 076°16'0 0.0
2018-Apr-10 07:21N 36°50' W 076°16'0 0.0
2018-Apr-10 06:57N 36°50' W 076°16'0 0.0
2018-Apr-10 06:15N 36°50' W 076°16'0 0.0
2018-Apr-10 05:51N 36°50' W 076°16'0 0.0
2018-Apr-10 05:27N 36°50' W 076°16'0 0.0
2018-Apr-10 05:00N 36°50' W 076°16'0 0.0
2018-Apr-10 04:30N 36°50' W 076°16'0 0.0
2018-Apr-10 03:48N 36°50' W 076°16'0 0.0
2018-Apr-10 03:30N 36°50' W 076°16'0 0.0
2018-Apr-10 02:57N 36°50' W 076°16'0 0.0
2018-Apr-10 02:21N 36°50' W 076°16'0 0.0
2018-Apr-10 01:57N 36°50' W 076°16'0 0.0
2018-Apr-10 01:21N 36°50' W 076°16'0 0.0
2018-Apr-10 00:03N 36°50' W 076°16'0 0.0
2018-Apr-09 23:59N 36°50' W 076°16'0 0.9
2018-Apr-09 23:30N 36°50' W 076°17'2 4.8
2018-Apr-09 23:00N 36°48' W 076°18'2 3.9
2018-Apr-09 22:28N 36°46' W 076°18'1 1.2
2018-Apr-09 21:59N 36°47' W 076°18'3 5.2
2018-Apr-09 21:30N 36°49' W 076°17'1 1.5
2018-Apr-09 20:34N 36°50' W 076°16'  
Track history (hours):
 
Tides and Currents Weather Stations Pressure Air Temp Water Temp Dewpoint Dewpoint Depression Visibility Wind Speed Wind Dir Waves Ship Positions

Jack Holland

Owner: Norfolk Tug Company, Norfolk, VA. More information available from US FCC via Universal Licensing System and Coast Guard Vessel Documentation Center.

Last reported at 2018-Apr-19 20:18 UTC. Time now 2018-Apr-20 14:26 UTC.
Position N 36°55' W 076°20'.

Length 22 m; draft 2.5 m.

Type: Tug. MMSI: 367442020.

Date/timePositionNaut miles runAvg speedWind from/ knotsBaromVisibWave heightAir tempDewpointWater temp
2018-Apr-19 20:18N 36°55' W 076°20'3 7.6
2018-Apr-19 19:57N 36°53' W 076°20'3 7.0
2018-Apr-19 19:30N 36°50' W 076°17'1 1.4
2018-Apr-19 18:59N 36°50' W 076°16'0 0.1
2018-Apr-19 18:28N 36°50' W 076°16'0 0.2
2018-Apr-19 18:00N 36°50' W 076°16'0 0.0
2018-Apr-19 17:30N 36°50' W 076°16'0 0.0
2018-Apr-19 17:00N 36°50' W 076°16'0 0.0
2018-Apr-19 16:30N 36°50' W 076°16'0 0.0
2018-Apr-19 16:00N 36°50' W 076°16'0 0.0
2018-Apr-19 15:30N 36°50' W 076°16'0 0.0
2018-Apr-19 15:00N 36°50' W 076°16'0 0.0
2018-Apr-19 14:30N 36°50' W 076°16'0 0.0
2018-Apr-19 14:00N 36°50' W 076°16'0 0.0
2018-Apr-19 13:30N 36°50' W 076°16'0 0.0
2018-Apr-19 12:57N 36°50' W 076°16'0 0.0
2018-Apr-19 12:31N 36°50' W 076°16'0 0.0
2018-Apr-19 12:00N 36°50' W 076°16'0 0.0
2018-Apr-19 11:30N 36°50' W 076°16'0 0.0
2018-Apr-19 11:01N 36°50' W 076°16'0 0.0
2018-Apr-19 10:30N 36°50' W 076°16'0 0.0
2018-Apr-19 10:00N 36°50' W 076°16'0 0.0
2018-Apr-19 09:30N 36°50' W 076°16'0 0.0
2018-Apr-19 09:00N 36°50' W 076°16'0 0.0
2018-Apr-19 08:31N 36°50' W 076°16'0 0.0
2018-Apr-19 08:00N 36°50' W 076°16'0 0.0
2018-Apr-19 07:30N 36°50' W 076°16'0 0.0
2018-Apr-19 07:00N 36°50' W 076°16'0 0.0
2018-Apr-19 06:27N 36°50' W 076°16'0 0.0
2018-Apr-19 06:00N 36°50' W 076°16'0 0.0
2018-Apr-19 05:30N 36°50' W 076°16'0 0.0
2018-Apr-19 05:00N 36°50' W 076°16'0 0.0
2018-Apr-19 04:30N 36°50' W 076°16'0 0.0
2018-Apr-19 04:00N 36°50' W 076°16'0 0.0
2018-Apr-19 03:30N 36°50' W 076°16'0 0.0
2018-Apr-19 02:57N 36°50' W 076°16'0 0.0
2018-Apr-19 02:30N 36°50' W 076°16'0 0.0
2018-Apr-19 01:57N 36°50' W 076°16'0 0.0
2018-Apr-19 01:30N 36°50' W 076°16'0 0.0
2018-Apr-19 01:00N 36°50' W 076°16'0 0.0
2018-Apr-19 00:27N 36°50' W 076°16'0 0.0
2018-Apr-19 00:00N 36°50' W 076°16'0 0.0
2018-Apr-18 23:30N 36°50' W 076°16'0 0.1
2018-Apr-18 23:00N 36°50' W 076°16'3 6.0
2018-Apr-18 22:30N 36°52' W 076°19'2 3.0
2018-Apr-18 21:42N 36°54' W 076°20'0 1.0
2018-Apr-18 21:14N 36°55' W 076°20'0 0.0
2018-Apr-18 20:56N 36°55' W 076°20'2 3.6
2018-Apr-18 20:28N 36°53' W 076°20'3 7.4
2018-Apr-18 20:00N 36°51' W 076°17'1 1.6
2018-Apr-18 19:28N 36°50' W 076°16'0 0.0
2018-Apr-18 18:58N 36°50' W 076°16'0 0.0
2018-Apr-18 18:28N 36°50' W 076°16'0 0.0
2018-Apr-18 17:58N 36°50' W 076°16'0 0.0
2018-Apr-18 17:28N 36°50' W 076°16'0 0.0
2018-Apr-18 16:58N 36°50' W 076°16'0 0.0
2018-Apr-18 16:28N 36°50' W 076°16'0 0.3
2018-Apr-18 16:01N 36°50' W 076°16'2 3.7
2018-Apr-18 15:30N 36°49' W 076°17'2 4.5
2018-Apr-18 15:00N 36°46' W 076°18'0 0.4
2018-Apr-18 14:30N 36°46' W 076°18'3 6.7
2018-Apr-18 14:00N 36°50' W 076°18'2 3.0
2018-Apr-18 13:29N 36°51' W 076°18'3 7.4
2018-Apr-18 13:00N 36°54' W 076°20'2 0.1
2018-Apr-17 20:36N 36°56' W 076°20'2 8.5
2018-Apr-17 20:25N 36°54' W 076°20'3 7.8
2018-Apr-17 20:00N 36°51' W 076°18'3 7.0
2018-Apr-17 19:30N 36°48' W 076°18'2 3.3
2018-Apr-17 18:58N 36°46' W 076°18'0 0.0
2018-Apr-17 18:28N 36°46' W 076°18'0 0.0
2018-Apr-17 17:58N 36°46' W 076°18'0 0.0
2018-Apr-17 17:28N 36°46' W 076°18'0 0.0
2018-Apr-17 16:58N 36°46' W 076°18'0 0.0
2018-Apr-17 16:28N 36°46' W 076°18'0 0.0
2018-Apr-17 15:58N 36°46' W 076°18'0 0.0
2018-Apr-17 15:28N 36°46' W 076°18'0 0.0
2018-Apr-17 14:58N 36°46' W 076°18'0 0.0
2018-Apr-17 14:28N 36°46' W 076°18'0 0.0
2018-Apr-17 13:58N 36°46' W 076°18'0 0.0
2018-Apr-17 13:28N 36°46' W 076°18'0 0.0
2018-Apr-17 12:58N 36°46' W 076°18'0 0.0
2018-Apr-17 12:28N 36°46' W 076°18'0 0.0
2018-Apr-17 11:58N 36°46' W 076°18'0 0.1
2018-Apr-17 11:28N 36°46' W 076°18'1 1.3
2018-Apr-17 11:00N 36°47' W 076°18'0 0.1
2018-Apr-17 10:30N 36°47' W 076°18'1 1.6
2018-Apr-17 10:00N 36°47' W 076°18'2 3.6
2018-Apr-17 09:31N 36°49' W 076°17'2 3.9
2018-Apr-17 09:01N 36°51' W 076°18'2 4.2
2018-Apr-17 08:29N 36°53' W 076°20'2 4.3
2018-Apr-17 08:00N 36°55' W 076°20'2 0.0
2018-Apr-15 16:12N 36°56' W 076°20'3 9.1
2018-Apr-15 15:52N 36°53' W 076°20'3 8.3
2018-Apr-15 15:30N 36°51' W 076°18'4 7.8
2018-Apr-15 15:00N 36°47' W 076°18'1 2.0
2018-Apr-15 14:28N 36°46' W 076°18'2 4.5
2018-Apr-15 14:00N 36°48' W 076°18'3 4.9
2018-Apr-15 13:30N 36°50' W 076°16'0 0.3
2018-Apr-15 12:58N 36°50' W 076°16'0 0.0
2018-Apr-15 12:28N 36°50' W 076°16'0 0.0
2018-Apr-15 11:58N 36°50' W 076°16'0 0.0
2018-Apr-15 11:25N 36°50' W 076°16'0 0.0
2018-Apr-15 10:58N 36°50' W 076°16'0 0.0
2018-Apr-15 10:28N 36°50' W 076°16'0 0.0
2018-Apr-15 09:58N 36°50' W 076°16'0 0.0
2018-Apr-15 09:28N 36°50' W 076°16'0 0.0
2018-Apr-15 08:55N 36°50' W 076°16'0 0.0
2018-Apr-15 08:28N 36°50' W 076°16'0 0.0
2018-Apr-15 07:58N 36°50' W 076°16'0 0.0
2018-Apr-15 07:28N 36°50' W 076°16'0 0.0
2018-Apr-15 06:58N 36°50' W 076°16'0 0.0
2018-Apr-15 06:28N 36°50' W 076°16'0 0.0
2018-Apr-15 05:58N 36°50' W 076°16'0 0.0
2018-Apr-15 05:28N 36°50' W 076°16'0 0.0
2018-Apr-15 04:58N 36°50' W 076°16'0 0.0
2018-Apr-15 04:28N 36°50' W 076°16'0 0.0
2018-Apr-15 03:58N 36°50' W 076°16'0 0.0
2018-Apr-15 03:28N 36°50' W 076°16'0 0.0
2018-Apr-15 02:55N 36°50' W 076°16'0 0.0
2018-Apr-15 02:28N 36°50' W 076°16'0 0.0
2018-Apr-15 01:58N 36°50' W 076°16'0 0.0
2018-Apr-15 01:28N 36°50' W 076°16'0 0.0
2018-Apr-15 00:58N 36°50' W 076°16'0 0.0
2018-Apr-15 00:28N 36°50' W 076°16'0 0.0
2018-Apr-14 23:52N 36°50' W 076°16'0 0.0
2018-Apr-14 23:28N 36°50' W 076°16'0 0.0
2018-Apr-14 22:58N 36°50' W 076°16'0 0.0
2018-Apr-14 22:28N 36°50' W 076°16'0 0.0
2018-Apr-14 21:58N 36°50' W 076°16'0 0.0
2018-Apr-14 21:28N 36°50' W 076°16'0 0.0
2018-Apr-14 20:58N 36°50' W 076°16'0 0.0
2018-Apr-14 20:28N 36°50' W 076°16'0 0.0
2018-Apr-14 19:58N 36°50' W 076°16'0 0.0
2018-Apr-14 19:28N 36°50' W 076°16'0 0.0
2018-Apr-14 18:58N 36°50' W 076°16'0 0.0
2018-Apr-14 18:28N 36°50' W 076°16'0 0.0
2018-Apr-14 17:58N 36°50' W 076°16'0 0.0
2018-Apr-14 17:28N 36°50' W 076°16'0 0.0
2018-Apr-14 16:58N 36°50' W 076°16'0 0.0
2018-Apr-14 16:28N 36°50' W 076°16'0 0.0
2018-Apr-14 15:58N 36°50' W 076°16'0 0.0
2018-Apr-14 15:28N 36°50' W 076°16'0 0.0
2018-Apr-14 14:58N 36°50' W 076°16'0 0.0
2018-Apr-14 14:28N 36°50' W 076°16'0 0.0
2018-Apr-14 13:58N 36°50' W 076°16'0 0.0
2018-Apr-14 13:28N 36°50' W 076°16'0 0.0
2018-Apr-14 12:58N 36°50' W 076°16'0 0.0
2018-Apr-14 12:27N 36°50' W 076°16'1 2.7
2018-Apr-14 12:00N 36°50' W 076°18'2 4.1
2018-Apr-14 11:30N 36°48' W 076°18'0 0.0
2018-Apr-14 11:00N 36°48' W 076°18'0 0.0
2018-Apr-14 10:27N 36°48' W 076°18'0 0.0
2018-Apr-14 10:00N 36°48' W 076°18'0 0.6
2018-Apr-14 09:30N 36°48' W 076°18'2 5.0
2018-Apr-14 09:00N 36°50' W 076°16'0 0.0
2018-Apr-14 05:30N 36°50' W 076°16'0 0.0
2018-Apr-14 04:27N 36°50' W 076°16'0 0.0
2018-Apr-14 04:00N 36°50' W 076°16'0 0.0
2018-Apr-14 03:30N 36°50' W 076°16'0 0.0
2018-Apr-14 03:00N 36°50' W 076°16'0 0.0
2018-Apr-14 02:30N 36°50' W 076°16'0 0.0
2018-Apr-14 02:00N 36°50' W 076°16'0 0.0
2018-Apr-14 01:30N 36°50' W 076°16'0 0.0
2018-Apr-14 01:00N 36°50' W 076°16'0 0.0
2018-Apr-14 00:30N 36°50' W 076°16'0 0.0
2018-Apr-14 00:00N 36°50' W 076°16'0 0.0
2018-Apr-13 23:30N 36°50' W 076°16'0 0.0
2018-Apr-13 22:48N 36°50' W 076°16'0 0.0
2018-Apr-13 22:06N 36°50' W 076°16'0 0.0
2018-Apr-13 21:48N 36°50' W 076°16'0 0.0
2018-Apr-13 21:27N 36°50' W 076°16'0 0.0
2018-Apr-13 20:57N 36°50' W 076°16'0 0.0
2018-Apr-13 20:24N 36°50' W 076°16'0 0.0
2018-Apr-13 20:00N 36°50' W 076°16'0 0.0
2018-Apr-13 19:18N 36°50' W 076°16'0 0.3
2018-Apr-13 19:00N 36°50' W 076°16'3 6.6
2018-Apr-13 18:30N 36°52' W 076°20'3 0.2
2018-Apr-13 01:38N 36°55' W 076°20'2 9.1
2018-Apr-13 01:27N 36°53' W 076°20'4 8.2
2018-Apr-13 01:00N 36°51' W 076°18'0 0.4
2018-Apr-13 00:29N 36°50' W 076°17'0 0.3
2018-Apr-13 00:00N 36°50' W 076°18'3 6.6
2018-Apr-12 23:30N 36°52' W 076°21'0 0.2
2018-Apr-12 22:57N 36°53' W 076°21'1 3.1
2018-Apr-12 22:30N 36°52' W 076°19'0 0.2
2018-Apr-12 21:00N 36°52' W 076°20'1 1.7
2018-Apr-12 20:27N 36°51' W 076°18'2 4.4
2018-Apr-12 20:00N 36°50' W 076°16'0 0.3
2018-Apr-12 19:23N 36°50' W 076°16'0 0.0
2018-Apr-12 17:59N 36°50' W 076°16'0 0.0
2018-Apr-12 16:35N 36°50' W 076°16'0 0.0
2018-Apr-12 16:29N 36°50' W 076°16'0 0.0
2018-Apr-12 15:47N 36°50' W 076°16'0 0.5
2018-Apr-12 15:30N 36°50' W 076°16'2 4.2
2018-Apr-12 14:59N 36°48' W 076°17'2 4.5
2018-Apr-12 14:30N 36°46' W 076°18'0 0.5
2018-Apr-12 13:58N 36°46' W 076°18'1 1.5
2018-Apr-12 13:30N 36°47' W 076°18'3 5.0
2018-Apr-12 13:00N 36°49' W 076°17'3 5.6
2018-Apr-12 12:30N 36°52' W 076°19'3 6.0
2018-Apr-12 12:00N 36°54' W 076°20'2 0.1
2018-Apr-10 18:10N 36°57' W 076°20'1 8.1
2018-Apr-10 18:00N 36°55' W 076°20'3 6.0
2018-Apr-10 17:30N 36°52' W 076°20'3 5.7
2018-Apr-10 17:00N 36°51' W 076°17'1 1.3
2018-Apr-10 16:17N 36°50' W 076°16'0 1.5
2018-Apr-10 16:00N 36°50' W 076°17'0 0.4
2018-Apr-10 15:29N 36°50' W 076°17'0 0.2
2018-Apr-10 14:59N 36°50' W 076°17'0 0.0
2018-Apr-10 14:23N 36°50' W 076°17'1 1.4
2018-Apr-10 14:00N 36°50' W 076°16'0 0.0
2018-Apr-10 12:36N 36°50' W 076°16'0 0.0
2018-Apr-10 12:30N 36°50' W 076°16'0 0.0
2018-Apr-10 11:45N 36°50' W 076°16'0 0.0
2018-Apr-10 11:21N 36°50' W 076°16'0 0.0
2018-Apr-10 11:00N 36°50' W 076°16'0 0.0
2018-Apr-10 10:30N 36°50' W 076°16'0 0.0
2018-Apr-10 10:00N 36°50' W 076°16'0 0.0
2018-Apr-10 09:27N 36°50' W 076°16'0 0.0
2018-Apr-10 09:00N 36°50' W 076°16'0 0.0
2018-Apr-10 08:27N 36°50' W 076°16'0 0.0
2018-Apr-10 07:57N 36°50' W 076°16'0 0.0
2018-Apr-10 07:21N 36°50' W 076°16'0 0.0
2018-Apr-10 06:57N 36°50' W 076°16'0 0.0
2018-Apr-10 06:15N 36°50' W 076°16'0 0.0
2018-Apr-10 05:51N 36°50' W 076°16'0 0.0
2018-Apr-10 05:27N 36°50' W 076°16'0 0.0
2018-Apr-10 05:00N 36°50' W 076°16'0 0.0
2018-Apr-10 04:30N 36°50' W 076°16'0 0.0
2018-Apr-10 03:48N 36°50' W 076°16'0 0.0
2018-Apr-10 03:30N 36°50' W 076°16'0 0.0
2018-Apr-10 02:57N 36°50' W 076°16'0 0.0
2018-Apr-10 02:21N 36°50' W 076°16'0 0.0
2018-Apr-10 01:57N 36°50' W 076°16'0 0.0
2018-Apr-10 01:21N 36°50' W 076°16'0 0.0
2018-Apr-10 00:03N 36°50' W 076°16'0 0.0
2018-Apr-09 23:59N 36°50' W 076°16'0 0.9
2018-Apr-09 23:30N 36°50' W 076°17'2 4.8
2018-Apr-09 23:00N 36°48' W 076°18'2 3.9
2018-Apr-09 22:28N 36°46' W 076°18'1 1.2
2018-Apr-09 21:59N 36°47' W 076°18'3 5.2
2018-Apr-09 21:30N 36°49' W 076°17'1 1.5
2018-Apr-09 20:34N 36°50' W 076°16'  

Dump ship's entire track history